Kingsville Naval Air Station, Texas
Current Conditions -  °F | °C
As of 10:56 AM on Thursday 27 Nov 2014 (Local Time) from KNQI Reporting Station
Clear Clear  
Wind Chill: 68°   Ceiling: Unl
Heat Index: 68°   Visibility: 10mi
Dew Point: 53°   Wind: 5mph
Humidity: 59%   Direction: 20°NNE
Pressure: 30.46"   Gusts: NA
Location:  27.4762°N, 97.7965°W
Report Text: KNQI 271656Z AUTO 02004KT 10SM CLR 20/12 A3046 RMK AO2 SLP311 T02000117
Loading
Personal Weather Stations






























Interactive Weather Map New forecast layout! Learn more

10-Day Weather Forecast

Advertisements
Track Severe Weather on mobile